Weather at Prince George's Hospital Center Heliport

Public forecast

Using degrees Fahrenheit for public forecast. Weather courtesy of forecast.io.

Closest aviation weather report (METAR) to Prince George's Hospital Center Heliport

Closest report is College Park Airport, 3.0 nm (5.6 km) N.

2024/02/26 13:05 (retrieved 29 minutes ago)

KCGS 261305Z AUTO 00000KT 10SM CLR 02/M02 A3005 RMK AO2 T00181016

Closest aviation forecast (TAF) to Prince George's Hospital Center Heliport

Closest forecast is Ronald Reagan Washington National Airport, 7.2 nm (13.3 km) SW.

2024/02/26 12:39 (retrieved 55 minutes ago)

TAF KDCA 261137Z 2612/2718 19004KT P6SM BKN110 OVC250 FM261400 23005KT P6SM SCT200 FM262200 19007KT P6SM FEW150 SCT250 FM270200 15006KT P6SM SCT150 FM270800 18004KT P6SM SCT090 BKN130 FM271400 18005KT P6SM SCT060 BKN250